createdAt,value
2019-01-26T00:01:06.931Z,32.70
2019-01-26T00:03:35.434Z,29.83
2019-01-26T00:06:04.049Z,30.90
2019-01-26T00:08:32.668Z,31.53
2019-01-26T00:11:02.397Z,30.40
2019-01-26T00:13:31.132Z,30.03
2019-01-26T00:15:59.615Z,28.80
2019-01-26T00:18:28.091Z,29.53
2019-01-26T00:20:56.637Z,29.27
2019-01-26T00:23:25.183Z,30.30
2019-01-26T00:25:53.699Z,30.90
2019-01-26T00:28:22.184Z,28.83
2019-01-26T00:30:50.690Z,30.03
2019-01-26T00:33:19.211Z,27.23
2019-01-26T00:35:48.051Z,28.10
2019-01-26T00:38:16.583Z,28.13
2019-01-26T00:40:45.145Z,27.17
2019-01-26T00:43:13.683Z,25.47
2019-01-26T00:45:42.202Z,27.10
2019-01-26T00:48:10.668Z,25.77
2019-01-26T00:50:39.274Z,25.60
2019-01-26T00:53:07.816Z,23.93
2019-01-26T00:55:36.367Z,23.73
2019-01-26T00:58:05.054Z,22.47
2019-01-26T01:00:33.597Z,21.10
2019-01-26T01:03:02.075Z,21.40
2019-01-26T01:05:31.006Z,21.13
2019-01-26T01:07:59.923Z,21.93
2019-01-26T01:10:28.879Z,21.03
2019-01-26T01:12:57.755Z,21.53
2019-01-26T01:15:26.635Z,20.43
2019-01-26T01:17:55.205Z,19.70
2019-01-26T01:20:23.834Z,20.83
2019-01-26T01:22:52.458Z,17.60
2019-01-26T01:25:21.064Z,20.73
2019-01-26T01:27:49.536Z,19.90
2019-01-26T01:30:24.597Z,22.53
2019-01-26T01:32:53.079Z,20.53
2019-01-26T01:35:21.599Z,23.50
2019-01-26T01:37:50.086Z,22.47
2019-01-26T01:40:18.781Z,21.93
2019-01-26T01:42:47.403Z,22.87
2019-01-26T01:45:23.348Z,20.73
2019-01-26T01:47:51.883Z,19.90
2019-01-26T01:50:20.473Z,21.30
2019-01-26T01:52:49.028Z,20.23
2019-01-26T01:55:17.545Z,21.40
2019-01-26T01:57:46.096Z,24.30
2019-01-26T02:00:25.332Z,22.20
2019-01-26T02:02:53.958Z,22.97
2019-01-26T02:05:22.796Z,24.07
2019-01-26T02:07:51.394Z,22.77
2019-01-26T02:10:22.094Z,24.80
2019-01-26T02:12:50.634Z,25.80
2019-01-26T02:15:19.231Z,24.23
2019-01-26T02:17:47.772Z,22.40
2019-01-26T02:20:19.054Z,25.40
2019-01-26T02:22:47.654Z,23.73
2019-01-26T02:25:16.283Z,23.13
2019-01-26T02:27:44.842Z,24.20
2019-01-26T02:30:19.034Z,23.00
2019-01-26T02:32:47.504Z,22.83
2019-01-26T02:35:16.039Z,23.20
2019-01-26T02:37:44.585Z,22.03
2019-01-26T02:40:14.879Z,21.30
2019-01-26T02:42:43.512Z,19.43
2019-01-26T02:45:13.841Z,19.37
2019-01-26T02:47:42.462Z,21.87
2019-01-26T02:50:16.304Z,21.33
2019-01-26T02:52:44.913Z,21.30
2019-01-26T02:55:14.035Z,21.20
2019-01-26T02:57:42.640Z,21.97
2019-01-26T03:00:16.855Z,20.80
2019-01-26T03:02:45.840Z,20.67
2019-01-26T03:05:14.810Z,19.50
2019-01-26T03:07:43.737Z,18.93
2019-01-26T03:10:18.393Z,19.07
2019-01-26T03:12:47.308Z,19.10
2019-01-26T03:15:18.620Z,17.77
2019-01-26T03:17:47.696Z,19.47
2019-01-26T03:20:17.591Z,17.57
2019-01-26T03:22:46.549Z,17.20
2019-01-26T03:25:16.414Z,18.27
2019-01-26T03:27:45.265Z,16.77
2019-01-26T03:30:17.133Z,16.20
2019-01-26T03:32:46.054Z,15.83
2019-01-26T03:35:15.025Z,16.27
2019-01-26T03:37:43.944Z,15.07
2019-01-26T03:40:21.171Z,15.70
2019-01-26T03:42:49.744Z,16.97
2019-01-26T03:45:18.416Z,14.47
2019-01-26T03:47:47.037Z,15.07
2019-01-26T03:50:16.120Z,15.30
2019-01-26T03:52:44.723Z,15.77
2019-01-26T03:55:16.080Z,14.60
2019-01-26T03:57:44.741Z,15.53
2019-01-26T04:00:27.197Z,15.10
2019-01-26T04:02:55.798Z,15.27
2019-01-26T04:05:24.364Z,15.37
2019-01-26T04:07:52.958Z,14.83
2019-01-26T04:10:21.525Z,13.77
2019-01-26T04:12:50.056Z,14.00
2019-01-26T04:15:20.201Z,13.63
2019-01-26T04:17:48.927Z,13.53
2019-01-26T04:20:22.647Z,13.53
2019-01-26T04:22:51.500Z,13.80
2019-01-26T04:25:20.093Z,12.63
2019-01-26T04:27:48.639Z,13.97
2019-01-26T04:30:19.646Z,13.07
2019-01-26T04:32:48.196Z,12.40
2019-01-26T04:35:16.910Z,12.13
2019-01-26T04:37:45.703Z,11.97
2019-01-26T04:40:16.288Z,11.70
2019-01-26T04:42:44.826Z,10.70
2019-01-26T04:45:16.174Z,12.43
2019-01-26T04:47:44.871Z,12.57
2019-01-26T04:50:15.582Z,12.37
2019-01-26T04:52:44.086Z,12.33
2019-01-26T04:55:13.214Z,13.07
2019-01-26T04:57:41.741Z,12.87
2019-01-26T05:00:26.802Z,13.23
2019-01-26T05:02:55.506Z,12.67
2019-01-26T05:05:24.214Z,13.00
2019-01-26T05:07:52.814Z,13.83
2019-01-26T05:10:21.839Z,13.67
2019-01-26T05:12:50.842Z,14.03
2019-01-26T05:15:19.764Z,14.80
2019-01-26T05:17:48.319Z,15.80
2019-01-26T05:20:24.501Z,16.83
2019-01-26T05:22:53.199Z,15.57
2019-01-26T05:25:21.782Z,17.00
2019-01-26T05:27:51.031Z,19.07
2019-01-26T05:30:22.131Z,17.97
2019-01-26T05:32:50.745Z,17.07
2019-01-26T05:35:19.364Z,18.80
2019-01-26T05:37:47.996Z,18.77
2019-01-26T05:40:18.002Z,19.07
2019-01-26T05:42:46.602Z,19.67
2019-01-26T05:45:17.522Z,19.13
2019-01-26T05:47:48.922Z,19.47
2019-01-26T05:50:19.461Z,17.50
2019-01-26T05:52:47.924Z,18.13
2019-01-26T05:55:16.528Z,18.20
2019-01-26T05:57:45.000Z,19.33
2019-01-26T06:00:17.180Z,17.40
2019-01-26T06:02:45.645Z,18.27
2019-01-26T06:05:14.191Z,16.97
2019-01-26T06:07:42.647Z,18.27
2019-01-26T06:10:11.187Z,16.13
2019-01-26T06:12:39.738Z,17.80
2019-01-26T06:15:27.545Z,18.27
2019-01-26T06:17:56.097Z,16.93
2019-01-26T06:20:24.557Z,16.13
2019-01-26T06:22:53.085Z,17.07
2019-01-26T06:25:21.683Z,16.43
2019-01-26T06:27:50.222Z,16.60
2019-01-26T06:30:23.312Z,17.23
2019-01-26T06:32:51.853Z,17.03
2019-01-26T06:35:20.373Z,15.90
2019-01-26T06:37:48.840Z,15.90
2019-01-26T06:40:18.950Z,16.33
2019-01-26T06:42:47.494Z,14.40
2019-01-26T06:45:18.001Z,14.53
2019-01-26T06:47:46.664Z,14.60
2019-01-26T06:50:24.396Z,14.30
2019-01-26T06:52:52.994Z,13.57
2019-01-26T06:55:21.597Z,14.03
2019-01-26T06:57:50.216Z,13.83
2019-01-26T07:00:25.113Z,11.80
2019-01-26T07:02:53.920Z,12.87
2019-01-26T07:05:42.449Z,13.33
2019-01-26T07:08:12.616Z,12.43
2019-01-26T07:10:41.148Z,13.23
2019-01-26T07:13:09.628Z,12.87
2019-01-26T07:15:38.108Z,13.33
2019-01-26T07:18:09.657Z,13.10
2019-01-26T07:20:36.984Z,15.70
2019-01-26T07:23:05.569Z,14.37
2019-01-26T07:25:34.191Z,15.70
2019-01-26T07:28:02.716Z,15.87
2019-01-26T07:30:31.209Z,16.23
2019-01-26T07:32:59.816Z,17.80
2019-01-26T07:35:28.311Z,17.47
2019-01-26T07:37:56.887Z,19.80
2019-01-26T07:40:25.769Z,16.20
2019-01-26T07:42:54.326Z,19.53
2019-01-26T07:45:22.882Z,17.40
2019-01-26T07:47:51.431Z,17.80
2019-01-26T07:50:22.808Z,17.70
2019-01-26T07:52:51.437Z,17.67
2019-01-26T07:55:20.124Z,17.50
2019-01-26T07:57:48.930Z,16.87
2019-01-26T08:00:23.362Z,17.07
2019-01-26T08:02:51.899Z,18.00
2019-01-26T08:05:20.640Z,18.17
2019-01-26T08:07:49.159Z,18.40
2019-01-26T08:10:19.983Z,18.23
2019-01-26T08:12:48.812Z,17.93
2019-01-26T08:15:25.784Z,18.37
2019-01-26T08:17:54.314Z,18.53
2019-01-26T08:20:23.307Z,19.70
2019-01-26T08:22:52.233Z,19.30
2019-01-26T08:25:20.889Z,19.60
2019-01-26T08:27:49.544Z,18.60
2019-01-26T08:30:22.702Z,18.63
2019-01-26T08:32:51.352Z,18.63
2019-01-26T08:35:20.250Z,20.43
2019-01-26T08:37:49.344Z,19.43
2019-01-26T08:40:21.745Z,20.03
2019-01-26T08:42:50.544Z,18.80
2019-01-26T08:45:19.148Z,21.20
2019-01-26T08:47:47.994Z,19.77
2019-01-26T08:50:41.303Z,20.57
2019-01-26T08:56:28.400Z,19.70
2019-01-26T08:59:08.967Z,19.23
2019-01-26T09:01:51.553Z,18.70
2019-01-26T09:04:32.641Z,17.67
2019-01-26T09:07:13.473Z,18.20
2019-01-26T09:09:54.402Z,17.07
2019-01-26T09:12:34.905Z,19.20
2019-01-26T09:15:15.840Z,19.77
2019-01-26T09:17:56.663Z,20.57
2019-01-26T09:20:37.598Z,18.57
2019-01-26T09:23:18.419Z,18.07
2019-01-26T09:25:59.546Z,18.10
2019-01-26T09:28:40.078Z,16.03
2019-01-26T09:31:21.016Z,15.13
2019-01-26T09:34:01.625Z,16.27
2019-01-26T09:36:42.418Z,15.97
2019-01-26T09:39:23.446Z,15.90
2019-01-26T09:41:51.947Z,15.23
2019-01-26T09:44:20.487Z,13.87
2019-01-26T09:46:49.094Z,11.90
2019-01-26T09:49:17.667Z,13.80
2019-01-26T09:51:46.268Z,12.93
2019-01-26T09:54:14.760Z,11.50
2019-01-26T09:56:43.297Z,11.83
2019-01-26T09:59:13.692Z,14.90
2019-01-26T10:01:42.327Z,13.73
2019-01-26T10:04:10.929Z,13.87
2019-01-26T10:06:40.361Z,14.40
2019-01-26T10:09:09.913Z,11.70
2019-01-26T10:11:38.463Z,12.97
2019-01-26T10:14:07.007Z,13.80
2019-01-26T10:16:35.499Z,14.63
2019-01-26T10:19:04.742Z,13.53
2019-01-26T10:21:33.232Z,13.50
2019-01-26T10:24:01.782Z,13.17
2019-01-26T10:26:30.326Z,13.87
2019-01-26T10:28:58.844Z,16.90
2019-01-26T10:31:27.395Z,15.17
2019-01-26T10:33:55.851Z,15.83
2019-01-26T10:36:26.105Z,15.20
2019-01-26T10:38:55.729Z,14.43
2019-01-26T10:41:25.935Z,14.07
2019-01-26T10:43:55.013Z,13.83
2019-01-26T10:46:23.497Z,15.40
2019-01-26T10:49:00.604Z,14.33
2019-01-26T10:51:25.538Z,14.00
2019-01-26T10:53:54.064Z,12.60
2019-01-26T10:56:22.603Z,13.17
2019-01-26T10:58:51.081Z,12.90
2019-01-26T11:01:19.647Z,12.83
2019-01-26T11:03:48.251Z,15.37
2019-01-26T11:06:16.887Z,13.13
2019-01-26T11:08:45.451Z,17.50
2019-01-26T11:11:13.971Z,16.50
2019-01-26T11:13:42.448Z,16.57
2019-01-26T11:16:11.026Z,17.50
2019-01-26T11:18:39.479Z,17.17
2019-01-26T11:21:07.964Z,16.70
2019-01-26T11:23:36.458Z,17.17
2019-01-26T11:26:05.423Z,15.90
2019-01-26T11:28:33.900Z,16.33
2019-01-26T11:31:02.451Z,15.33
2019-01-26T11:33:31.012Z,13.43
2019-01-26T11:35:59.540Z,14.00
2019-01-26T11:38:28.111Z,14.30
2019-01-26T11:40:56.746Z,15.00
2019-01-26T11:43:25.205Z,12.93
2019-01-26T11:46:01.027Z,12.93
2019-01-26T11:48:31.228Z,12.20
2019-01-26T11:51:04.173Z,9.80
2019-01-26T11:53:32.650Z,10.30
2019-01-26T11:56:05.469Z,8.40
2019-01-26T11:58:34.140Z,8.43
2019-01-26T12:01:20.586Z,9.83
2019-01-26T12:03:53.721Z,8.80
2019-01-26T12:06:26.287Z,7.70
2019-01-26T12:08:54.724Z,7.10
2019-01-26T12:11:23.190Z,7.43
2019-01-26T12:13:51.671Z,5.13
2019-01-26T12:16:26.738Z,4.80
2019-01-26T12:18:50.800Z,4.73
2019-01-26T12:21:19.327Z,4.23
2019-01-26T12:23:48.268Z,3.90
2019-01-26T12:26:17.093Z,4.07
2019-01-26T12:28:45.562Z,3.63
2019-01-26T12:31:14.101Z,3.23
2019-01-26T12:33:42.655Z,3.57
2019-01-26T12:36:11.213Z,3.53
2019-01-26T12:38:39.817Z,3.87
2019-01-26T12:41:08.382Z,3.53
2019-01-26T12:43:36.921Z,3.27
2019-01-26T12:46:05.472Z,3.10
2019-01-26T12:48:34.094Z,3.30
2019-01-26T12:51:06.198Z,3.50
2019-01-26T12:53:34.822Z,3.20
2019-01-26T12:56:03.462Z,3.00
2019-01-26T12:58:31.944Z,3.10
2019-01-26T13:01:00.419Z,2.57
2019-01-26T13:03:29.018Z,2.40
2019-01-26T13:05:57.517Z,2.40
2019-01-26T13:08:25.970Z,2.73
2019-01-26T13:11:00.556Z,2.67
2019-01-26T13:13:30.281Z,3.10
2019-01-26T13:15:58.813Z,4.23
2019-01-26T13:18:27.363Z,4.40
2019-01-26T13:20:55.883Z,4.57
2019-01-26T13:23:24.597Z,5.80
2019-01-26T13:25:53.203Z,7.00
2019-01-26T13:28:21.662Z,8.03
2019-01-26T13:30:50.220Z,9.00
2019-01-26T13:33:18.828Z,8.80
2019-01-26T13:35:47.353Z,8.50
2019-01-26T13:38:15.800Z,10.23
2019-01-26T13:40:44.342Z,9.23
2019-01-26T13:43:12.811Z,10.80
2019-01-26T13:45:41.355Z,10.87
2019-01-26T13:48:09.856Z,11.23
2019-01-26T13:50:38.418Z,11.30
2019-01-26T13:53:07.058Z,11.07
2019-01-26T13:55:35.673Z,10.53
2019-01-26T13:58:04.575Z,11.30
2019-01-26T14:00:35.079Z,10.10
2019-01-26T14:03:03.765Z,10.13
2019-01-26T14:05:32.466Z,9.97
2019-01-26T14:08:01.203Z,8.57
2019-01-26T14:10:29.928Z,10.13
2019-01-26T14:12:58.491Z,8.67
2019-01-26T14:15:27.128Z,9.40
2019-01-26T14:17:55.661Z,9.57
2019-01-26T14:20:25.864Z,8.13
2019-01-26T14:22:54.521Z,9.47
2019-01-26T14:25:23.747Z,9.30
2019-01-26T14:27:52.434Z,8.93
2019-01-26T14:30:36.220Z,9.10
2019-01-26T14:33:05.284Z,8.53
2019-01-26T14:35:33.766Z,8.93
2019-01-26T14:38:02.472Z,8.90
2019-01-26T14:40:31.078Z,8.30
2019-01-26T14:42:59.634Z,8.87
2019-01-26T14:45:29.171Z,8.53
2019-01-26T14:47:58.021Z,8.47
2019-01-26T14:50:26.557Z,8.77
2019-01-26T14:52:55.149Z,7.33
2019-01-26T14:55:30.948Z,8.20
2019-01-26T14:57:59.654Z,8.50
2019-01-26T15:00:33.898Z,8.47
2019-01-26T15:03:02.427Z,9.07
2019-01-26T15:05:31.244Z,8.20
2019-01-26T15:08:00.315Z,8.20
2019-01-26T15:10:29.023Z,8.27
2019-01-26T15:12:57.602Z,8.60
2019-01-26T15:15:26.212Z,7.60
2019-01-26T15:17:54.767Z,8.73
2019-01-26T15:20:44.089Z,8.97
2019-01-26T15:23:24.750Z,9.77
2019-01-26T15:26:05.536Z,9.77
2019-01-26T15:28:46.344Z,10.00
2019-01-26T15:31:28.719Z,9.53
2019-01-26T15:34:09.957Z,9.00
2019-01-26T15:36:50.687Z,9.10
2019-01-26T15:39:31.641Z,7.70
2019-01-26T15:42:12.461Z,6.93
2019-01-26T15:44:53.427Z,7.43
2019-01-26T15:47:34.366Z,7.23
2019-01-26T15:50:15.345Z,7.83
2019-01-26T15:52:55.913Z,7.53
2019-01-26T15:55:36.717Z,7.83
2019-01-26T15:58:17.891Z,7.60
2019-01-26T16:00:58.420Z,7.03
2019-01-26T16:03:39.123Z,6.83
2019-01-26T16:06:20.907Z,7.10
2019-01-26T16:09:01.308Z,7.50
2019-01-26T16:11:41.877Z,6.37
2019-01-26T16:14:22.834Z,6.87
2019-01-26T16:17:03.418Z,7.13
2019-01-26T16:19:44.121Z,7.00
2019-01-26T16:22:25.012Z,6.87
2019-01-26T16:25:05.454Z,6.60
2019-01-26T16:27:46.264Z,7.90
2019-01-26T16:30:27.068Z,8.23
2019-01-26T16:33:08.151Z,8.10
2019-01-26T16:35:48.522Z,8.47
2019-01-26T16:38:29.450Z,8.93
2019-01-26T16:41:10.107Z,8.77
2019-01-26T16:43:50.961Z,8.30
2019-01-26T16:46:31.734Z,8.77
2019-01-26T16:49:12.595Z,7.87
2019-01-26T16:51:53.567Z,8.83
2019-01-26T16:54:34.381Z,9.20
2019-01-26T16:57:15.546Z,9.23
2019-01-26T16:59:55.956Z,8.87
2019-01-26T17:02:36.547Z,7.03
2019-01-26T17:05:17.434Z,8.17
2019-01-26T17:07:58.330Z,8.47
2019-01-26T17:10:39.066Z,8.27
2019-01-26T17:13:19.881Z,7.53
2019-01-26T17:16:00.558Z,8.43
2019-01-26T17:18:46.123Z,7.20
2019-01-26T17:21:24.054Z,8.90
2019-01-26T17:24:05.107Z,7.70
2019-01-26T17:26:52.598Z,7.93
2019-01-26T17:29:28.028Z,8.17
2019-01-26T17:32:08.756Z,8.57
2019-01-26T17:34:49.570Z,9.07
2019-01-26T17:37:30.353Z,8.37
2019-01-26T17:40:11.097Z,8.67
2019-01-26T17:42:51.695Z,8.83
2019-01-26T17:45:32.607Z,9.47
2019-01-26T17:48:13.415Z,9.23
2019-01-26T17:50:54.229Z,9.23
2019-01-26T17:53:34.671Z,8.90
2019-01-26T17:56:15.484Z,9.07
2019-01-26T17:58:56.504Z,8.10
2019-01-26T18:01:37.043Z,8.93
2019-01-26T18:04:17.676Z,8.80
2019-01-26T18:06:58.486Z,8.43
2019-01-26T18:09:39.036Z,8.40
2019-01-26T18:12:19.505Z,8.57
2019-01-26T18:15:00.503Z,6.57
2019-01-26T18:17:41.316Z,8.93
2019-01-26T18:20:22.403Z,7.70
2019-01-26T18:23:03.215Z,7.17
2019-01-26T18:25:43.932Z,8.13
2019-01-26T18:28:24.640Z,8.83
2019-01-26T18:31:05.215Z,8.47
2019-01-26T18:33:46.195Z,8.97
2019-01-26T18:36:26.794Z,8.57
2019-01-26T18:39:07.714Z,8.63
2019-01-26T18:41:48.348Z,9.07
2019-01-26T18:44:29.349Z,9.30
2019-01-26T18:47:09.844Z,9.57
2019-01-26T18:49:50.813Z,8.93
2019-01-26T18:52:31.287Z,8.33
2019-01-26T18:55:12.237Z,8.77
2019-01-26T18:57:52.693Z,9.83
2019-01-26T19:00:33.289Z,10.47
2019-01-26T19:03:13.715Z,10.00
2019-01-26T19:05:54.330Z,10.27
2019-01-26T19:08:35.163Z,9.87
2019-01-26T19:11:15.687Z,9.03
2019-01-26T19:13:56.477Z,10.33
2019-01-26T19:16:36.724Z,9.13
2019-01-26T19:19:17.442Z,9.13
2019-01-26T19:21:57.976Z,9.00
2019-01-26T19:24:38.336Z,7.70
2019-01-26T19:27:19.073Z,8.17
2019-01-26T19:29:59.924Z,8.30
2019-01-26T19:32:40.647Z,8.30
2019-01-26T19:35:21.508Z,8.83
2019-01-26T19:38:02.406Z,9.00
2019-01-26T19:40:43.453Z,8.10
2019-01-26T19:43:24.334Z,8.60
2019-01-26T19:46:05.317Z,9.10
2019-01-26T19:48:46.009Z,8.13
2019-01-26T19:51:26.755Z,8.13
2019-01-26T19:54:07.489Z,8.17
2019-01-26T19:56:48.322Z,8.57
2019-01-26T19:59:28.949Z,8.70
2019-01-26T20:02:09.753Z,8.30
2019-01-26T20:04:51.824Z,7.70
2019-01-26T20:07:33.275Z,9.63
2019-01-26T20:10:14.163Z,9.10
2019-01-26T20:12:54.881Z,9.50
2019-01-26T20:15:35.697Z,8.83
2019-01-26T20:18:16.676Z,8.87
2019-01-26T20:20:45.314Z,8.23
2019-01-26T20:23:13.838Z,8.23
2019-01-26T20:25:42.290Z,8.37
2019-01-26T20:28:10.900Z,8.47
2019-01-26T20:30:39.370Z,7.93
2019-01-26T20:33:07.965Z,8.93
2019-01-26T20:35:36.510Z,8.40
2019-01-26T20:38:05.195Z,6.80
2019-01-26T20:40:33.666Z,7.93
2019-01-26T20:43:02.141Z,7.70
2019-01-26T20:45:30.864Z,8.87
2019-01-26T20:47:59.391Z,8.33
2019-01-26T20:50:27.914Z,8.40
2019-01-26T20:52:56.538Z,7.67
2019-01-26T20:55:25.151Z,7.87
2019-01-26T20:57:53.668Z,6.90
2019-01-26T21:00:27.051Z,6.87
2019-01-26T21:02:55.511Z,6.93
2019-01-26T21:05:24.145Z,7.00
2019-01-26T21:07:52.606Z,7.37
2019-01-26T21:10:26.293Z,7.40
2019-01-26T21:12:55.011Z,7.33
2019-01-26T21:15:23.616Z,8.20
2019-01-26T21:17:52.175Z,6.93
2019-01-26T21:20:22.762Z,6.47
2019-01-26T21:22:51.309Z,7.37
2019-01-26T21:25:19.904Z,6.77
2019-01-26T21:27:48.553Z,6.17
2019-01-26T21:30:22.235Z,6.43
2019-01-26T21:32:50.765Z,6.33
2019-01-26T21:35:19.407Z,6.53
2019-01-26T21:37:48.004Z,6.20
2019-01-26T21:40:19.375Z,5.83
2019-01-26T21:42:48.041Z,6.60
2019-01-26T21:45:17.355Z,6.10
2019-01-26T21:47:45.975Z,6.30
2019-01-26T21:50:17.519Z,6.20
2019-01-26T21:52:46.059Z,5.40
2019-01-26T21:55:14.684Z,5.83
2019-01-26T21:57:43.276Z,5.77
2019-01-26T22:00:17.555Z,4.83
2019-01-26T22:02:46.109Z,5.00
2019-01-26T22:05:14.723Z,5.00
2019-01-26T22:07:43.382Z,5.67
2019-01-26T22:10:17.550Z,4.37
2019-01-26T22:12:46.270Z,5.27
2019-01-26T22:15:17.237Z,5.03
2019-01-26T22:17:45.778Z,4.87
2019-01-26T22:20:19.447Z,4.30
2019-01-26T22:22:49.047Z,5.17
2019-01-26T22:25:18.154Z,4.47
2019-01-26T22:27:46.752Z,4.00
2019-01-26T22:30:26.410Z,4.43
2019-01-26T22:32:55.020Z,4.20
2019-01-26T22:35:24.808Z,4.70
2019-01-26T22:37:53.591Z,4.50
2019-01-26T22:40:24.901Z,5.27
2019-01-26T22:42:53.355Z,3.60
2019-01-26T22:45:22.856Z,5.37
2019-01-26T22:47:51.463Z,4.87
2019-01-26T22:50:25.060Z,5.57
2019-01-26T22:52:53.665Z,5.13
2019-01-26T22:55:22.276Z,5.50
2019-01-26T22:57:50.962Z,5.37
2019-01-26T23:00:51.355Z,5.83
2019-01-26T23:03:23.219Z,5.67
2019-01-26T23:05:57.382Z,6.13
2019-01-26T23:08:28.929Z,6.33
2019-01-26T23:11:18.550Z,5.80
2019-01-26T23:13:50.092Z,6.63
2019-01-26T23:16:47.198Z,6.20
2019-01-26T23:19:24.669Z,7.47
2019-01-26T23:21:58.907Z,7.37
2019-01-26T23:24:51.742Z,7.13
2019-01-26T23:27:23.279Z,7.90
2019-01-26T23:30:10.133Z,8.33
2019-01-26T23:32:38.743Z,8.00
2019-01-26T23:35:08.359Z,8.83
2019-01-26T23:37:36.817Z,7.80
2019-01-26T23:40:08.634Z,9.03
2019-01-26T23:42:37.106Z,7.27
2019-01-26T23:45:08.395Z,7.97
2019-01-26T23:47:36.908Z,8.50
2019-01-26T23:50:08.061Z,7.17
2019-01-26T23:52:36.621Z,7.67
2019-01-26T23:55:07.806Z,7.47
2019-01-26T23:57:36.327Z,7.20
